Terminal Aerodrome Forecast
Issued by NWS

Home | Current Version | Previous Version | Text Only | Print | Product List | Glossary On
Versions: 1 2 3 4 5 6 7 8 9 10 11 12 13 14 15 16 17 18 19 20 21 22 23
000
FTUS44 KMAF 111100
TAFCNM
TAF
KCNM 111121Z 1112/1212 15007KT P6SM FEW250
     FM111600 14010G18KT P6SM SCT060 SCT250
     FM120200 13012KT P6SM SCT080 BKN250
     FM120700 14006KT P6SM FEW100 BKN250=

USA.gov is the U.S. government's official web portal to all federal, state and local government web resources and services.